sensor_id;sensor_type;location;lat;lon;timestamp;pressure;altitude;pressure_sealevel;temperature
75822;BMP180;64454;51.984;9.838;2023-02-28T00:01:30;101657.00;;;1.30
75822;BMP180;64454;51.984;9.838;2023-02-28T00:03:57;101656.00;;;1.20
75822;BMP180;64454;51.984;9.838;2023-02-28T00:06:24;101653.00;;;0.70
75822;BMP180;64454;51.984;9.838;2023-02-28T00:08:51;101649.00;;;0.40
75822;BMP180;64454;51.984;9.838;2023-02-28T00:11:18;101655.00;;;0.20
75822;BMP180;64454;51.984;9.838;2023-02-28T00:13:47;101655.00;;;0.20
75822;BMP180;64454;51.984;9.838;2023-02-28T00:16:18;101651.00;;;0.00
75822;BMP180;64454;51.984;9.838;2023-02-28T00:18:46;101655.00;;;-0.10
75822;BMP180;64454;51.984;9.838;2023-02-28T00:21:14;101658.00;;;0.30
75822;BMP180;64454;51.984;9.838;2023-02-28T00:23:41;101656.00;;;0.00
75822;BMP180;64454;51.984;9.838;2023-02-28T00:26:08;101661.00;;;0.50
75822;BMP180;64454;51.984;9.838;2023-02-28T00:28:34;101657.00;;;0.60
75822;BMP180;64454;51.984;9.838;2023-02-28T00:31:01;101660.00;;;0.90
75822;BMP180;64454;51.984;9.838;2023-02-28T00:33:29;101652.00;;;1.10
75822;BMP180;64454;51.984;9.838;2023-02-28T00:36:05;101655.00;;;0.80
75822;BMP180;64454;51.984;9.838;2023-02-28T00:38:32;101663.00;;;0.40
75822;BMP180;64454;51.984;9.838;2023-02-28T00:40:59;101667.00;;;0.30
75822;BMP180;64454;51.984;9.838;2023-02-28T00:43:31;101649.00;;;0.70
75822;BMP180;64454;51.984;9.838;2023-02-28T00:45:58;101663.00;;;0.70
75822;BMP180;64454;51.984;9.838;2023-02-28T00:48:25;101665.00;;;0.70
75822;BMP180;64454;51.984;9.838;2023-02-28T00:50:53;101651.00;;;0.90
75822;BMP180;64454;51.984;9.838;2023-02-28T00:53:20;101660.00;;;0.90
75822;BMP180;64454;51.984;9.838;2023-02-28T00:55:48;101652.00;;;0.60
75822;BMP180;64454;51.984;9.838;2023-02-28T00:58:15;101658.00;;;0.80
75822;BMP180;64454;51.984;9.838;2023-02-28T01:00:41;101660.00;;;0.90
75822;BMP180;64454;51.984;9.838;2023-02-28T01:03:08;101659.00;;;0.90
75822;BMP180;64454;51.984;9.838;2023-02-28T01:05:35;101652.00;;;0.80
75822;BMP180;64454;51.984;9.838;2023-02-28T01:08:04;101654.00;;;0.60
75822;BMP180;64454;51.984;9.838;2023-02-28T01:10:31;101660.00;;;0.40
75822;BMP180;64454;51.984;9.838;2023-02-28T01:12:58;101653.00;;;0.70
75822;BMP180;64454;51.984;9.838;2023-02-28T01:15:25;101652.00;;;0.80
75822;BMP180;64454;51.984;9.838;2023-02-28T01:17:52;101655.00;;;0.30
75822;BMP180;64454;51.984;9.838;2023-02-28T01:20:19;101664.00;;;0.60
75822;BMP180;64454;51.984;9.838;2023-02-28T01:22:46;101652.00;;;0.60
75822;BMP180;64454;51.984;9.838;2023-02-28T01:25:14;101661.00;;;0.50
75822;BMP180;64454;51.984;9.838;2023-02-28T01:27:41;101657.00;;;0.40
75822;BMP180;64454;51.984;9.838;2023-02-28T01:30:09;101659.00;;;0.60
75822;BMP180;64454;51.984;9.838;2023-02-28T01:32:36;101655.00;;;0.20
75822;BMP180;64454;51.984;9.838;2023-02-28T01:35:04;101657.00;;;0.40
75822;BMP180;64454;51.984;9.838;2023-02-28T01:37:31;101641.00;;;0.20
75822;BMP180;64454;51.984;9.838;2023-02-28T01:39:58;101651.00;;;-0.10
75822;BMP180;64454;51.984;9.838;2023-02-28T01:42:26;101638.00;;;-0.20
75822;BMP180;64454;51.984;9.838;2023-02-28T01:45:08;101634.00;;;-0.20
75822;BMP180;64454;51.984;9.838;2023-02-28T01:47:44;101635.00;;;0.20
75822;BMP180;64454;51.984;9.838;2023-02-28T01:50:16;101639.00;;;0.30
75822;BMP180;64454;51.984;9.838;2023-02-28T01:52:46;101633.00;;;0.40
75822;BMP180;64454;51.984;9.838;2023-02-28T01:55:16;101631.00;;;0.20
75822;BMP180;64454;51.984;9.838;2023-02-28T01:57:50;101634.00;;;0.00
75822;BMP180;64454;51.984;9.838;2023-02-28T02:00:24;101623.00;;;0.00
75822;BMP180;64454;51.984;9.838;2023-02-28T02:02:56;101628.00;;;-0.10
75822;BMP180;64454;51.984;9.838;2023-02-28T02:05:27;101629.00;;;-0.30
75822;BMP180;64454;51.984;9.838;2023-02-28T02:08:02;101624.00;;;-0.50
75822;BMP180;64454;51.984;9.838;2023-02-28T02:10:34;101619.00;;;-0.10
75822;BMP180;64454;51.984;9.838;2023-02-28T02:13:29;101614.00;;;-0.10
75822;BMP180;64454;51.984;9.838;2023-02-28T02:16:12;101606.00;;;0.00
75822;BMP180;64454;51.984;9.838;2023-02-28T02:18:50;101609.00;;;-0.20
75822;BMP180;64454;51.984;9.838;2023-02-28T02:21:56;101606.00;;;-0.20
75822;BMP180;64454;51.984;9.838;2023-02-28T02:25:06;101607.00;;;-0.50
75822;BMP180;64454;51.984;9.838;2023-02-28T02:28:04;101614.00;;;-0.80
75822;BMP180;64454;51.984;9.838;2023-02-28T02:34:28;101617.00;;;-0.70
75822;BMP180;64454;51.984;9.838;2023-02-28T02:37:09;101615.00;;;-0.40
75822;BMP180;64454;51.984;9.838;2023-02-28T02:39:47;101614.00;;;-0.10
75822;BMP180;64454;51.984;9.838;2023-02-28T02:42:22;101614.00;;;0.00
75822;BMP180;64454;51.984;9.838;2023-02-28T02:45:00;101614.00;;;-0.30
75822;BMP180;64454;51.984;9.838;2023-02-28T02:47:30;101614.00;;;0.00
75822;BMP180;64454;51.984;9.838;2023-02-28T02:50:05;101613.00;;;-0.10
75822;BMP180;64454;51.984;9.838;2023-02-28T02:52:40;101603.00;;;-0.10
75822;BMP180;64454;51.984;9.838;2023-02-28T02:55:11;101601.00;;;-0.50
75822;BMP180;64454;51.984;9.838;2023-02-28T02:57:45;101615.00;;;0.00
75822;BMP180;64454;51.984;9.838;2023-02-28T03:00:16;101609.00;;;0.30
75822;BMP180;64454;51.984;9.838;2023-02-28T03:02:46;101607.00;;;0.70
75822;BMP180;64454;51.984;9.838;2023-02-28T03:05:22;101613.00;;;-0.20
75822;BMP180;64454;51.984;9.838;2023-02-28T03:07:50;101612.00;;;-0.60
75822;BMP180;64454;51.984;9.838;2023-02-28T03:10:31;101613.00;;;-0.20
75822;BMP180;64454;51.984;9.838;2023-02-28T03:13:22;101617.00;;;-0.40
75822;BMP180;64454;51.984;9.838;2023-02-28T03:16:10;101618.00;;;-0.70
75822;BMP180;64454;51.984;9.838;2023-02-28T03:18:53;101633.00;;;-1.00
75822;BMP180;64454;51.984;9.838;2023-02-28T03:21:32;101623.00;;;-0.60
75822;BMP180;64454;51.984;9.838;2023-02-28T03:24:08;101620.00;;;-0.10
75822;BMP180;64454;51.984;9.838;2023-02-28T03:26:42;101619.00;;;-0.10
75822;BMP180;64454;51.984;9.838;2023-02-28T03:29:20;101627.00;;;0.00
75822;BMP180;64454;51.984;9.838;2023-02-28T03:31:53;101621.00;;;0.20
75822;BMP180;64454;51.984;9.838;2023-02-28T03:34:28;101620.00;;;0.10
75822;BMP180;64454;51.984;9.838;2023-02-28T03:37:03;101623.00;;;0.20
75822;BMP180;64454;51.984;9.838;2023-02-28T03:39:39;101629.00;;;-0.10
75822;BMP180;64454;51.984;9.838;2023-02-28T03:42:11;101628.00;;;0.00
75822;BMP180;64454;51.984;9.838;2023-02-28T03:44:44;101622.00;;;0.20
75822;BMP180;64454;51.984;9.838;2023-02-28T03:47:16;101624.00;;;0.20
75822;BMP180;64454;51.984;9.838;2023-02-28T03:49:51;101618.00;;;0.20
75822;BMP180;64454;51.984;9.838;2023-02-28T03:52:25;101627.00;;;0.00
75822;BMP180;64454;51.984;9.838;2023-02-28T03:54:58;101629.00;;;-0.40
75822;BMP180;64454;51.984;9.838;2023-02-28T03:57:37;101620.00;;;-0.60
75822;BMP180;64454;51.984;9.838;2023-02-28T04:00:12;101627.00;;;-0.30
75822;BMP180;64454;51.984;9.838;2023-02-28T04:02:41;101628.00;;;-0.20
75822;BMP180;64454;51.984;9.838;2023-02-28T04:05:08;101630.00;;;-0.40
75822;BMP180;64454;51.984;9.838;2023-02-28T04:07:37;101631.00;;;-0.60
75822;BMP180;64454;51.984;9.838;2023-02-28T04:10:06;101638.00;;;-0.80
75822;BMP180;64454;51.984;9.838;2023-02-28T04:12:33;101637.00;;;-0.80
75822;BMP180;64454;51.984;9.838;2023-02-28T04:14:59;101642.00;;;-0.70
75822;BMP180;64454;51.984;9.838;2023-02-28T04:17:26;101641.00;;;-0.50
75822;BMP180;64454;51.984;9.838;2023-02-28T04:19:54;101639.00;;;-0.40
75822;BMP180;64454;51.984;9.838;2023-02-28T04:22:22;101642.00;;;-0.40
75822;BMP180;64454;51.984;9.838;2023-02-28T04:24:53;101638.00;;;-0.10
75822;BMP180;64454;51.984;9.838;2023-02-28T04:27:21;101645.00;;;0.00
75822;BMP180;64454;51.984;9.838;2023-02-28T04:29:47;101646.00;;;0.10
75822;BMP180;64454;51.984;9.838;2023-02-28T04:32:14;101638.00;;;0.10
75822;BMP180;64454;51.984;9.838;2023-02-28T04:34:41;101647.00;;;0.10
75822;BMP180;64454;51.984;9.838;2023-02-28T04:37:08;101652.00;;;-0.20
75822;BMP180;64454;51.984;9.838;2023-02-28T04:39:36;101646.00;;;0.00
75822;BMP180;64454;51.984;9.838;2023-02-28T04:42:04;101644.00;;;-0.10
75822;BMP180;64454;51.984;9.838;2023-02-28T04:44:31;101655.00;;;-0.60
75822;BMP180;64454;51.984;9.838;2023-02-28T04:46:58;101658.00;;;-0.50
75822;BMP180;64454;51.984;9.838;2023-02-28T04:49:25;101646.00;;;-0.10
75822;BMP180;64454;51.984;9.838;2023-02-28T04:51:52;101652.00;;;-0.50
75822;BMP180;64454;51.984;9.838;2023-02-28T04:54:20;101655.00;;;-0.30
75822;BMP180;64454;51.984;9.838;2023-02-28T04:56:47;101652.00;;;-0.30
75822;BMP180;64454;51.984;9.838;2023-02-28T04:59:18;101650.00;;;-0.30
75822;BMP180;64454;51.984;9.838;2023-02-28T05:01:47;101650.00;;;-0.30
75822;BMP180;64454;51.984;9.838;2023-02-28T05:04:17;101655.00;;;-0.10
75822;BMP180;64454;51.984;9.838;2023-02-28T05:06:45;101648.00;;;0.10
75822;BMP180;64454;51.984;9.838;2023-02-28T05:09:11;101647.00;;;0.50
75822;BMP180;64454;51.984;9.838;2023-02-28T05:11:39;101645.00;;;0.10
75822;BMP180;64454;51.984;9.838;2023-02-28T05:14:11;101648.00;;;0.00
75822;BMP180;64454;51.984;9.838;2023-02-28T05:16:40;101648.00;;;-0.50
75822;BMP180;64454;51.984;9.838;2023-02-28T05:19:07;101651.00;;;-0.10
75822;BMP180;64454;51.984;9.838;2023-02-28T05:21:36;101641.00;;;-0.10
75822;BMP180;64454;51.984;9.838;2023-02-28T05:24:07;101644.00;;;-0.30
75822;BMP180;64454;51.984;9.838;2023-02-28T05:26:37;101632.00;;;0.10
75822;BMP180;64454;51.984;9.838;2023-02-28T05:29:04;101633.00;;;0.10
75822;BMP180;64454;51.984;9.838;2023-02-28T05:31:31;101629.00;;;0.30
75822;BMP180;64454;51.984;9.838;2023-02-28T05:34:00;101630.00;;;-0.10
75822;BMP180;64454;51.984;9.838;2023-02-28T05:36:27;101635.00;;;-0.10
75822;BMP180;64454;51.984;9.838;2023-02-28T05:38:53;101635.00;;;-0.30
75822;BMP180;64454;51.984;9.838;2023-02-28T05:41:20;101641.00;;;-0.70
75822;BMP180;64454;51.984;9.838;2023-02-28T05:43:48;101644.00;;;-0.90
75822;BMP180;64454;51.984;9.838;2023-02-28T05:46:16;101648.00;;;-1.10
75822;BMP180;64454;51.984;9.838;2023-02-28T05:48:46;101650.00;;;-0.60
75822;BMP180;64454;51.984;9.838;2023-02-28T05:51:15;101646.00;;;-0.50
75822;BMP180;64454;51.984;9.838;2023-02-28T05:53:42;101643.00;;;-0.30
75822;BMP180;64454;51.984;9.838;2023-02-28T05:56:09;101654.00;;;-0.60
75822;BMP180;64454;51.984;9.838;2023-02-28T05:58:36;101654.00;;;-0.80
75822;BMP180;64454;51.984;9.838;2023-02-28T06:01:24;101651.00;;;-0.60
75822;BMP180;64454;51.984;9.838;2023-02-28T06:03:51;101656.00;;;-0.80
75822;BMP180;64454;51.984;9.838;2023-02-28T06:06:19;101644.00;;;-0.70
75822;BMP180;64454;51.984;9.838;2023-02-28T06:08:46;101654.00;;;-1.10
75822;BMP180;64454;51.984;9.838;2023-02-28T06:11:13;101658.00;;;-1.40
75822;BMP180;64454;51.984;9.838;2023-02-28T06:13:40;101654.00;;;-1.10
75822;BMP180;64454;51.984;9.838;2023-02-28T06:16:09;101655.00;;;-0.70
75822;BMP180;64454;51.984;9.838;2023-02-28T06:18:38;101664.00;;;-0.90
75822;BMP180;64454;51.984;9.838;2023-02-28T06:21:05;101669.00;;;-1.10
75822;BMP180;64454;51.984;9.838;2023-02-28T06:23:35;101662.00;;;-1.30
75822;BMP180;64454;51.984;9.838;2023-02-28T06:26:02;101668.00;;;-1.60
75822;BMP180;64454;51.984;9.838;2023-02-28T06:28:29;101673.00;;;-1.80
75822;BMP180;64454;51.984;9.838;2023-02-28T06:30:56;101678.00;;;-1.70
75822;BMP180;64454;51.984;9.838;2023-02-28T06:33:23;101680.00;;;-1.30
75822;BMP180;64454;51.984;9.838;2023-02-28T06:35:51;101685.00;;;-1.00
75822;BMP180;64454;51.984;9.838;2023-02-28T06:38:18;101688.00;;;-1.00
75822;BMP180;64454;51.984;9.838;2023-02-28T06:40:53;101686.00;;;-0.90
75822;BMP180;64454;51.984;9.838;2023-02-28T06:43:20;101693.00;;;-1.00
75822;BMP180;64454;51.984;9.838;2023-02-28T06:45:47;101694.00;;;-0.80
75822;BMP180;64454;51.984;9.838;2023-02-28T06:48:14;101697.00;;;-0.90
75822;BMP180;64454;51.984;9.838;2023-02-28T06:50:41;101703.00;;;-0.60
75822;BMP180;64454;51.984;9.838;2023-02-28T06:53:08;101690.00;;;-0.30
75822;BMP180;64454;51.984;9.838;2023-02-28T06:55:37;101692.00;;;-0.30
75822;BMP180;64454;51.984;9.838;2023-02-28T06:58:05;101697.00;;;-0.50
75822;BMP180;64454;51.984;9.838;2023-02-28T07:00:40;101699.00;;;-0.90
75822;BMP180;64454;51.984;9.838;2023-02-28T07:03:07;101700.00;;;-0.80
75822;BMP180;64454;51.984;9.838;2023-02-28T07:05:35;101700.00;;;-0.60
75822;BMP180;64454;51.984;9.838;2023-02-28T07:08:02;101705.00;;;-0.70
75822;BMP180;64454;51.984;9.838;2023-02-28T07:10:29;101704.00;;;-0.30
75822;BMP180;64454;51.984;9.838;2023-02-28T07:12:55;101705.00;;;-0.40
75822;BMP180;64454;51.984;9.838;2023-02-28T07:15:24;101716.00;;;-0.60
75822;BMP180;64454;51.984;9.838;2023-02-28T07:17:51;101713.00;;;-0.30
75822;BMP180;64454;51.984;9.838;2023-02-28T07:20:18;101710.00;;;0.00
75822;BMP180;64454;51.984;9.838;2023-02-28T07:22:44;101700.00;;;0.10
75822;BMP180;64454;51.984;9.838;2023-02-28T07:25:11;101707.00;;;0.00
75822;BMP180;64454;51.984;9.838;2023-02-28T07:27:38;101716.00;;;0.00
75822;BMP180;64454;51.984;9.838;2023-02-28T07:30:07;101712.00;;;0.30
75822;BMP180;64454;51.984;9.838;2023-02-28T07:32:35;101700.00;;;0.40
75822;BMP180;64454;51.984;9.838;2023-02-28T07:35:04;101704.00;;;0.40
75822;BMP180;64454;51.984;9.838;2023-02-28T07:37:30;101707.00;;;0.40
75822;BMP180;64454;51.984;9.838;2023-02-28T07:40:02;101707.00;;;0.60
75822;BMP180;64454;51.984;9.838;2023-02-28T07:42:32;101711.00;;;0.60
75822;BMP180;64454;51.984;9.838;2023-02-28T07:44:58;101709.00;;;0.70
75822;BMP180;64454;51.984;9.838;2023-02-28T07:47:25;101700.00;;;1.10
75822;BMP180;64454;51.984;9.838;2023-02-28T07:49:53;101697.00;;;1.40
75822;BMP180;64454;51.984;9.838;2023-02-28T07:52:20;101700.00;;;1.40
75822;BMP180;64454;51.984;9.838;2023-02-28T07:54:48;101709.00;;;1.60
75822;BMP180;64454;51.984;9.838;2023-02-28T07:57:15;101698.00;;;1.60
75822;BMP180;64454;51.984;9.838;2023-02-28T07:59:42;101707.00;;;1.70
75822;BMP180;64454;51.984;9.838;2023-02-28T08:02:12;101703.00;;;2.00
75822;BMP180;64454;51.984;9.838;2023-02-28T08:04:40;101707.00;;;2.30
75822;BMP180;64454;51.984;9.838;2023-02-28T08:07:08;101702.00;;;2.20
75822;BMP180;64454;51.984;9.838;2023-02-28T08:09:39;101712.00;;;2.50
75822;BMP180;64454;51.984;9.838;2023-02-28T08:12:06;101714.00;;;1.80
75822;BMP180;64454;51.984;9.838;2023-02-28T08:14:34;101702.00;;;2.40
75822;BMP180;64454;51.984;9.838;2023-02-28T08:17:02;101715.00;;;2.00
75822;BMP180;64454;51.984;9.838;2023-02-28T08:19:29;101709.00;;;2.10
75822;BMP180;64454;51.984;9.838;2023-02-28T08:21:56;101707.00;;;2.10
75822;BMP180;64454;51.984;9.838;2023-02-28T08:24:25;101706.00;;;2.20
75822;BMP180;64454;51.984;9.838;2023-02-28T08:26:51;101706.00;;;2.30
75822;BMP180;64454;51.984;9.838;2023-02-28T08:29:19;101702.00;;;2.30
75822;BMP180;64454;51.984;9.838;2023-02-28T08:31:47;101709.00;;;2.80
75822;BMP180;64454;51.984;9.838;2023-02-28T08:34:16;101705.00;;;2.80
75822;BMP180;64454;51.984;9.838;2023-02-28T08:36:44;101705.00;;;3.10
75822;BMP180;64454;51.984;9.838;2023-02-28T08:39:11;101704.00;;;2.90
75822;BMP180;64454;51.984;9.838;2023-02-28T08:41:41;101705.00;;;3.10
75822;BMP180;64454;51.984;9.838;2023-02-28T08:44:09;101706.00;;;3.50
75822;BMP180;64454;51.984;9.838;2023-02-28T08:46:37;101709.00;;;3.70
75822;BMP180;64454;51.984;9.838;2023-02-28T08:49:04;101712.00;;;3.00
75822;BMP180;64454;51.984;9.838;2023-02-28T08:51:32;101706.00;;;2.90
75822;BMP180;64454;51.984;9.838;2023-02-28T08:54:00;101716.00;;;2.90
75822;BMP180;64454;51.984;9.838;2023-02-28T08:56:28;101709.00;;;3.10
75822;BMP180;64454;51.984;9.838;2023-02-28T08:58:57;101711.00;;;2.90
75822;BMP180;64454;51.984;9.838;2023-02-28T09:01:26;101707.00;;;2.80
75822;BMP180;64454;51.984;9.838;2023-02-28T09:03:55;101715.00;;;3.50
75822;BMP180;64454;51.984;9.838;2023-02-28T09:06:25;101718.00;;;3.20
75822;BMP180;64454;51.984;9.838;2023-02-28T09:08:53;101714.00;;;3.30
75822;BMP180;64454;51.984;9.838;2023-02-28T09:11:20;101713.00;;;2.90
75822;BMP180;64454;51.984;9.838;2023-02-28T09:13:47;101724.00;;;3.40
75822;BMP180;64454;51.984;9.838;2023-02-28T09:16:16;101720.00;;;3.70
75822;BMP180;64454;51.984;9.838;2023-02-28T09:18:44;101719.00;;;3.40
75822;BMP180;64454;51.984;9.838;2023-02-28T09:21:16;101717.00;;;3.30
75822;BMP180;64454;51.984;9.838;2023-02-28T09:23:46;101728.00;;;2.80
75822;BMP180;64454;51.984;9.838;2023-02-28T09:26:16;101716.00;;;3.20
75822;BMP180;64454;51.984;9.838;2023-02-28T09:28:43;101716.00;;;3.40
75822;BMP180;64454;51.984;9.838;2023-02-28T09:31:17;101719.00;;;3.80
75822;BMP180;64454;51.984;9.838;2023-02-28T09:33:46;101719.00;;;3.90
75822;BMP180;64454;51.984;9.838;2023-02-28T09:36:13;101718.00;;;3.80
75822;BMP180;64454;51.984;9.838;2023-02-28T09:38:39;101721.00;;;4.00
75822;BMP180;64454;51.984;9.838;2023-02-28T09:41:13;101723.00;;;3.60
75822;BMP180;64454;51.984;9.838;2023-02-28T09:43:45;101717.00;;;4.00
75822;BMP180;64454;51.984;9.838;2023-02-28T09:46:29;101705.00;;;4.20
75822;BMP180;64454;51.984;9.838;2023-02-28T09:49:00;101672.00;;;7.00
75822;BMP180;64454;51.984;9.838;2023-02-28T09:51:42;101668.00;;;10.80
75822;BMP180;64454;51.984;9.838;2023-02-28T09:54:17;101670.00;;;12.40
75822;BMP180;64454;51.984;9.838;2023-02-28T09:56:50;101664.00;;;14.20
75822;BMP180;64454;51.984;9.838;2023-02-28T09:59:39;101666.00;;;15.30
75822;BMP180;64454;51.984;9.838;2023-02-28T10:02:37;101659.00;;;17.20
75822;BMP180;64454;51.984;9.838;2023-02-28T10:05:11;101662.00;;;19.30
75822;BMP180;64454;51.984;9.838;2023-02-28T10:08:00;101659.00;;;18.70
75822;BMP180;64454;51.984;9.838;2023-02-28T10:10:37;101666.00;;;18.00
75822;BMP180;64454;51.984;9.838;2023-02-28T10:13:20;101668.00;;;20.00
75822;BMP180;64454;51.984;9.838;2023-02-28T10:15:53;101659.00;;;21.30
75822;BMP180;64454;51.984;9.838;2023-02-28T10:18:31;101665.00;;;18.80
75822;BMP180;64454;51.984;9.838;2023-02-28T10:21:03;101665.00;;;18.10
75822;BMP180;64454;51.984;9.838;2023-02-28T10:23:35;101658.00;;;20.40
75822;BMP180;64454;51.984;9.838;2023-02-28T10:26:12;101671.00;;;21.30
75822;BMP180;64454;51.984;9.838;2023-02-28T10:28:42;101670.00;;;18.60
75822;BMP180;64454;51.984;9.838;2023-02-28T10:31:14;101665.00;;;18.30
75822;BMP180;64454;51.984;9.838;2023-02-28T10:33:45;101666.00;;;18.50
75822;BMP180;64454;51.984;9.838;2023-02-28T10:36:15;101662.00;;;17.10
75822;BMP180;64454;51.984;9.838;2023-02-28T10:38:44;101655.00;;;18.10
75822;BMP180;64454;51.984;9.838;2023-02-28T10:41:14;101665.00;;;20.00
75822;BMP180;64454;51.984;9.838;2023-02-28T10:43:43;101659.00;;;15.80
75822;BMP180;64454;51.984;9.838;2023-02-28T10:46:15;101667.00;;;19.50
75822;BMP180;64454;51.984;9.838;2023-02-28T10:49:06;101705.00;;;18.80
75822;BMP180;64454;51.984;9.838;2023-02-28T10:51:40;101697.00;;;17.50
75822;BMP180;64454;51.984;9.838;2023-02-28T10:54:19;101658.00;;;15.70
75822;BMP180;64454;51.984;9.838;2023-02-28T10:57:08;101657.00;;;16.30
75822;BMP180;64454;51.984;9.838;2023-02-28T10:59:36;101653.00;;;17.20
75822;BMP180;64454;51.984;9.838;2023-02-28T11:02:31;101653.00;;;16.50
75822;BMP180;64454;51.984;9.838;2023-02-28T11:05:00;101659.00;;;15.90
75822;BMP180;64454;51.984;9.838;2023-02-28T11:07:27;101653.00;;;17.10
75822;BMP180;64454;51.984;9.838;2023-02-28T11:09:57;101653.00;;;17.00
75822;BMP180;64454;51.984;9.838;2023-02-28T11:12:36;101651.00;;;14.60
75822;BMP180;64454;51.984;9.838;2023-02-28T11:15:20;101703.00;;;15.10
75822;BMP180;64454;51.984;9.838;2023-02-28T11:17:54;101697.00;;;14.20
75822;BMP180;64454;51.984;9.838;2023-02-28T11:20:27;101668.00;;;12.00
75822;BMP180;64454;51.984;9.838;2023-02-28T11:22:56;101684.00;;;12.20
75822;BMP180;64454;51.984;9.838;2023-02-28T11:25:27;101690.00;;;10.60
75822;BMP180;64454;51.984;9.838;2023-02-28T11:27:57;101663.00;;;9.50
75822;BMP180;64454;51.984;9.838;2023-02-28T11:30:35;101655.00;;;10.90
75822;BMP180;64454;51.984;9.838;2023-02-28T11:33:23;101656.00;;;11.20
75822;BMP180;64454;51.984;9.838;2023-02-28T11:35:55;101679.00;;;12.10
75822;BMP180;64454;51.984;9.838;2023-02-28T11:38:25;101681.00;;;10.50
75822;BMP180;64454;51.984;9.838;2023-02-28T11:41:15;101654.00;;;10.70
75822;BMP180;64454;51.984;9.838;2023-02-28T11:44:09;101653.00;;;11.70
75822;BMP180;64454;51.984;9.838;2023-02-28T11:46:49;101654.00;;;10.30
75822;BMP180;64454;51.984;9.838;2023-02-28T11:49:37;101639.00;;;10.60
75822;BMP180;64454;51.984;9.838;2023-02-28T11:52:20;101639.00;;;10.30
75822;BMP180;64454;51.984;9.838;2023-02-28T11:55:04;101642.00;;;10.10
75822;BMP180;64454;51.984;9.838;2023-02-28T11:57:50;101639.00;;;10.40
75822;BMP180;64454;51.984;9.838;2023-02-28T12:00:43;101623.00;;;10.60
75822;BMP180;64454;51.984;9.838;2023-02-28T12:03:27;101622.00;;;12.00
75822;BMP180;64454;51.984;9.838;2023-02-28T12:06:09;101619.00;;;11.80
75822;BMP180;64454;51.984;9.838;2023-02-28T12:08:58;101632.00;;;11.40
75822;BMP180;64454;51.984;9.838;2023-02-28T12:11:40;101623.00;;;11.80
75822;BMP180;64454;51.984;9.838;2023-02-28T12:14:36;101633.00;;;10.90
75822;BMP180;64454;51.984;9.838;2023-02-28T12:17:26;101621.00;;;11.80
75822;BMP180;64454;51.984;9.838;2023-02-28T12:20:08;101626.00;;;11.60
75822;BMP180;64454;51.984;9.838;2023-02-28T12:22:47;101624.00;;;11.80
75822;BMP180;64454;51.984;9.838;2023-02-28T12:25:44;101626.00;;;11.90
75822;BMP180;64454;51.984;9.838;2023-02-28T12:28:20;101619.00;;;11.90
75822;BMP180;64454;51.984;9.838;2023-02-28T12:30:56;101621.00;;;11.20
75822;BMP180;64454;51.984;9.838;2023-02-28T12:33:30;101623.00;;;10.80
75822;BMP180;64454;51.984;9.838;2023-02-28T12:36:05;101619.00;;;10.70
75822;BMP180;64454;51.984;9.838;2023-02-28T12:38:40;101614.00;;;11.40
75822;BMP180;64454;51.984;9.838;2023-02-28T12:41:15;101620.00;;;11.40
75822;BMP180;64454;51.984;9.838;2023-02-28T12:43:47;101615.00;;;12.40
75822;BMP180;64454;51.984;9.838;2023-02-28T12:46:21;101606.00;;;13.40
75822;BMP180;64454;51.984;9.838;2023-02-28T12:48:53;101603.00;;;13.20
75822;BMP180;64454;51.984;9.838;2023-02-28T12:51:24;101600.00;;;14.30
75822;BMP180;64454;51.984;9.838;2023-02-28T12:54:06;101597.00;;;13.90
75822;BMP180;64454;51.984;9.838;2023-02-28T12:56:44;101598.00;;;13.10
75822;BMP180;64454;51.984;9.838;2023-02-28T12:59:24;101591.00;;;13.80
75822;BMP180;64454;51.984;9.838;2023-02-28T13:02:16;101629.00;;;13.20
75822;BMP180;64454;51.984;9.838;2023-02-28T13:05:08;101612.00;;;14.00
75822;BMP180;64454;51.984;9.838;2023-02-28T13:08:06;101621.00;;;13.90
75822;BMP180;64454;51.984;9.838;2023-02-28T13:10:42;101578.00;;;12.30
75822;BMP180;64454;51.984;9.838;2023-02-28T13:13:18;101581.00;;;13.00
75822;BMP180;64454;51.984;9.838;2023-02-28T13:16:03;101578.00;;;16.00
75822;BMP180;64454;51.984;9.838;2023-02-28T13:18:34;101574.00;;;18.10
75822;BMP180;64454;51.984;9.838;2023-02-28T13:21:04;101562.00;;;15.20
75822;BMP180;64454;51.984;9.838;2023-02-28T13:23:59;101565.00;;;17.10
75822;BMP180;64454;51.984;9.838;2023-02-28T13:29:53;101574.00;;;18.10
75822;BMP180;64454;51.984;9.838;2023-02-28T13:32:41;101562.00;;;17.30
75822;BMP180;64454;51.984;9.838;2023-02-28T13:35:37;101550.00;;;15.60
75822;BMP180;64454;51.984;9.838;2023-02-28T13:38:24;101540.00;;;15.20
75822;BMP180;64454;51.984;9.838;2023-02-28T13:40:51;101553.00;;;15.50
75822;BMP180;64454;51.984;9.838;2023-02-28T13:43:18;101552.00;;;17.00
75822;BMP180;64454;51.984;9.838;2023-02-28T13:46:11;101548.00;;;15.90
75822;BMP180;64454;51.984;9.838;2023-02-28T13:48:38;101545.00;;;16.40
75822;BMP180;64454;51.984;9.838;2023-02-28T13:51:40;101548.00;;;18.50
75822;BMP180;64454;51.984;9.838;2023-02-28T13:54:24;101540.00;;;18.10
75822;BMP180;64454;51.984;9.838;2023-02-28T13:57:11;101547.00;;;20.00
75822;BMP180;64454;51.984;9.838;2023-02-28T13:59:50;101536.00;;;18.50
75822;BMP180;64454;51.984;9.838;2023-02-28T14:02:44;101541.00;;;17.30
75822;BMP180;64454;51.984;9.838;2023-02-28T14:05:17;101534.00;;;17.60
75822;BMP180;64454;51.984;9.838;2023-02-28T14:07:48;101526.00;;;18.10
75822;BMP180;64454;51.984;9.838;2023-02-28T14:10:26;101530.00;;;17.80
75822;BMP180;64454;51.984;9.838;2023-02-28T14:13:10;101533.00;;;17.50
75822;BMP180;64454;51.984;9.838;2023-02-28T14:15:46;101533.00;;;18.70
75822;BMP180;64454;51.984;9.838;2023-02-28T14:18:21;101540.00;;;19.90
75822;BMP180;64454;51.984;9.838;2023-02-28T14:20:53;101538.00;;;18.30
75822;BMP180;64454;51.984;9.838;2023-02-28T14:23:39;101543.00;;;18.40
75822;BMP180;64454;51.984;9.838;2023-02-28T14:26:25;101566.00;;;16.00
75822;BMP180;64454;51.984;9.838;2023-02-28T14:29:19;101572.00;;;14.10
75822;BMP180;64454;51.984;9.838;2023-02-28T14:31:58;101576.00;;;12.00
75822;BMP180;64454;51.984;9.838;2023-02-28T14:34:41;101572.00;;;11.50
75822;BMP180;64454;51.984;9.838;2023-02-28T14:37:16;101569.00;;;11.00
75822;BMP180;64454;51.984;9.838;2023-02-28T14:39:46;101576.00;;;9.20
75822;BMP180;64454;51.984;9.838;2023-02-28T14:42:29;101579.00;;;10.10